Kimbolton, Ohio
Current Conditions -  °F | °C
As of 12:53 PM on Saturday 25 Oct 2014 (Local Time) from KZZV Reporting Station
Haze Haze  
Wind Chill: 64°   Ceiling: Unl
Heat Index: 64°   Visibility: 5mi
Dew Point: 50°   Wind: 13mph
Humidity: 60%   Direction: 230°SW
Pressure: 29.91"   Gusts: 20mph
Location:  40.15°N, 81.57°W
Report Text: KZZV 251653Z AUTO 23011G17KT 200V270 5SM HZ FEW060 18/10 A2991 RMK AO2 SLP127 T01780100
Loading
Personal Weather Stations






























Interactive Weather Map New forecast layout! Learn more

10-Day Weather Forecast

Advertisements
Track Severe Weather on mobile